Terminal Aerodrome Forecast
Issued by NWS

Home | Current Version | Previous Version | Graphics & Text | Print | Product List | Glossary Off
Versions: 1 2 3 4 5 6 7 8 9 10 11 12 13

000
FTUS41 KCLE 242300
TAFFDY
TAF
KFDY 242330Z 2500/2524 16010KT P6SM FEW100 SCT250
     FM250800 19012KT P6SM FEW120 BKN250
     FM251500 20014G24KT P6SM SCT050 BKN120
     FM251900 22020G28KT P6SM VCTS BKN050CB=

USA.gov is the U.S. government's official web portal to all federal, state and local government web resources and services.